sensor_id;sensor_type;location;lat;lon;timestamp;pressure;altitude;pressure_sealevel;temperature;humidity
28701;BME280;15877;52.344;16.790;2022-10-31T00:01:30;100955.70;;;14.19;73.18
28701;BME280;15877;52.344;16.790;2022-10-31T00:04:03;100956.02;;;14.18;73.31
28701;BME280;15877;52.344;16.790;2022-10-31T00:06:35;100956.78;;;14.16;73.50
28701;BME280;15877;52.344;16.790;2022-10-31T00:09:08;100959.31;;;14.15;73.29
28701;BME280;15877;52.344;16.790;2022-10-31T00:11:41;100955.80;;;14.14;73.25
28701;BME280;15877;52.344;16.790;2022-10-31T00:14:13;100956.52;;;14.14;73.46
28701;BME280;15877;52.344;16.790;2022-10-31T00:16:46;100957.99;;;14.12;74.69
28701;BME280;15877;52.344;16.790;2022-10-31T00:19:18;100953.05;;;14.12;75.11
28701;BME280;15877;52.344;16.790;2022-10-31T00:21:52;100955.86;;;14.13;74.06
28701;BME280;15877;52.344;16.790;2022-10-31T00:24:24;100954.09;;;14.13;73.98
28701;BME280;15877;52.344;16.790;2022-10-31T00:26:56;100955.23;;;14.13;74.04
28701;BME280;15877;52.344;16.790;2022-10-31T00:29:29;100957.64;;;14.14;74.15
28701;BME280;15877;52.344;16.790;2022-10-31T00:32:01;100942.90;;;14.06;73.55
28701;BME280;15877;52.344;16.790;2022-10-31T00:34:33;100957.80;;;14.15;73.78
28701;BME280;15877;52.344;16.790;2022-10-31T00:37:05;100958.38;;;14.16;74.29
28701;BME280;15877;52.344;16.790;2022-10-31T00:39:38;100960.88;;;14.12;74.89
28701;BME280;15877;52.344;16.790;2022-10-31T00:42:10;100958.08;;;14.12;75.24
28701;BME280;15877;52.344;16.790;2022-10-31T00:44:45;100961.69;;;14.13;75.37
28701;BME280;15877;52.344;16.790;2022-10-31T00:47:17;100948.45;;;14.05;75.12
28701;BME280;15877;52.344;16.790;2022-10-31T00:49:50;100961.43;;;14.12;74.81
28701;BME280;15877;52.344;16.790;2022-10-31T00:52:24;100958.85;;;14.11;74.91
28701;BME280;15877;52.344;16.790;2022-10-31T00:54:56;100965.16;;;14.11;74.47
28701;BME280;15877;52.344;16.790;2022-10-31T00:57:28;100962.20;;;14.09;74.28
28701;BME280;15877;52.344;16.790;2022-10-31T01:00:00;100949.40;;;13.99;74.28
28701;BME280;15877;52.344;16.790;2022-10-31T01:02:32;100961.89;;;14.06;73.78
28701;BME280;15877;52.344;16.790;2022-10-31T01:05:05;100960.67;;;14.05;73.56
28701;BME280;15877;52.344;16.790;2022-10-31T01:07:38;100970.09;;;14.00;73.98
28701;BME280;15877;52.344;16.790;2022-10-31T01:10:12;100971.38;;;14.01;73.88
28701;BME280;15877;52.344;16.790;2022-10-31T01:12:49;100971.63;;;14.01;74.07
28701;BME280;15877;52.344;16.790;2022-10-31T01:15:22;100976.16;;;14.00;73.86
28701;BME280;15877;52.344;16.790;2022-10-31T01:17:55;100980.14;;;13.99;73.83
28701;BME280;15877;52.344;16.790;2022-10-31T01:20:28;100976.98;;;13.97;73.68
28701;BME280;15877;52.344;16.790;2022-10-31T01:23:00;100979.98;;;13.96;73.98
28701;BME280;15877;52.344;16.790;2022-10-31T01:25:32;100976.46;;;13.95;73.89
28701;BME280;15877;52.344;16.790;2022-10-31T01:28:04;100976.84;;;13.94;73.91
28701;BME280;15877;52.344;16.790;2022-10-31T01:30:36;100976.73;;;13.91;73.86
28701;BME280;15877;52.344;16.790;2022-10-31T01:33:08;100980.71;;;13.91;73.67
28701;BME280;15877;52.344;16.790;2022-10-31T01:35:40;100982.02;;;13.88;73.20
28701;BME280;15877;52.344;16.790;2022-10-31T01:38:12;100980.77;;;13.85;73.08
28701;BME280;15877;52.344;16.790;2022-10-31T01:40:44;100987.21;;;13.84;73.20
28701;BME280;15877;52.344;16.790;2022-10-31T01:43:17;100986.20;;;13.81;73.10
28701;BME280;15877;52.344;16.790;2022-10-31T01:45:54;100982.89;;;13.79;73.12
28701;BME280;15877;52.344;16.790;2022-10-31T01:48:29;100980.23;;;13.77;73.16
28701;BME280;15877;52.344;16.790;2022-10-31T01:51:02;100962.80;;;13.62;73.08
28701;BME280;15877;52.344;16.790;2022-10-31T01:53:36;100981.86;;;13.74;73.10
28701;BME280;15877;52.344;16.790;2022-10-31T01:56:09;100983.59;;;13.73;73.24
28701;BME280;15877;52.344;16.790;2022-10-31T01:58:43;100987.45;;;13.70;73.74
28701;BME280;15877;52.344;16.790;2022-10-31T02:01:19;100981.42;;;13.68;74.01
28701;BME280;15877;52.344;16.790;2022-10-31T02:03:53;100983.38;;;13.66;74.22
28701;BME280;15877;52.344;16.790;2022-10-31T02:06:35;100982.17;;;13.66;74.10
28701;BME280;15877;52.344;16.790;2022-10-31T02:09:09;100984.62;;;13.64;74.00
28701;BME280;15877;52.344;16.790;2022-10-31T02:11:43;100984.44;;;13.63;74.00
28701;BME280;15877;52.344;16.790;2022-10-31T02:14:16;100985.91;;;13.61;73.84
28701;BME280;15877;52.344;16.790;2022-10-31T02:16:48;100983.02;;;13.59;74.02
28701;BME280;15877;52.344;16.790;2022-10-31T02:19:24;100980.89;;;13.57;73.95
28701;BME280;15877;52.344;16.790;2022-10-31T02:22:05;100982.04;;;13.55;73.85
28701;BME280;15877;52.344;16.790;2022-10-31T02:24:53;100977.05;;;13.52;73.64
28701;BME280;15877;52.344;16.790;2022-10-31T02:27:48;100981.89;;;13.50;73.80
28701;BME280;15877;52.344;16.790;2022-10-31T02:30:30;100981.15;;;13.49;73.63
28701;BME280;15877;52.344;16.790;2022-10-31T02:33:18;100982.20;;;13.50;73.45
28701;BME280;15877;52.344;16.790;2022-10-31T02:36:00;100979.42;;;13.50;73.05
28701;BME280;15877;52.344;16.790;2022-10-31T02:38:46;100983.23;;;13.46;73.11
28701;BME280;15877;52.344;16.790;2022-10-31T02:41:37;100987.51;;;13.44;73.10
28701;BME280;15877;52.344;16.790;2022-10-31T02:44:19;100984.83;;;13.41;73.36
28701;BME280;15877;52.344;16.790;2022-10-31T02:46:57;100986.08;;;13.39;73.44
28701;BME280;15877;52.344;16.790;2022-10-31T02:49:35;100987.91;;;13.35;73.72
28701;BME280;15877;52.344;16.790;2022-10-31T02:52:18;100991.04;;;13.36;73.97
28701;BME280;15877;52.344;16.790;2022-10-31T02:54:54;100982.23;;;13.27;73.48
28701;BME280;15877;52.344;16.790;2022-10-31T02:57:30;100994.25;;;13.34;73.39
28701;BME280;15877;52.344;16.790;2022-10-31T03:00:07;100994.41;;;13.34;73.27
28701;BME280;15877;52.344;16.790;2022-10-31T03:02:58;100996.95;;;13.33;73.17
28701;BME280;15877;52.344;16.790;2022-10-31T03:05:43;100992.55;;;13.32;72.92
28701;BME280;15877;52.344;16.790;2022-10-31T03:08:22;100992.98;;;13.31;72.80
28701;BME280;15877;52.344;16.790;2022-10-31T03:10:57;100994.02;;;13.29;72.62
28701;BME280;15877;52.344;16.790;2022-10-31T03:13:34;100996.70;;;13.28;72.16
28701;BME280;15877;52.344;16.790;2022-10-31T03:16:11;100994.45;;;13.28;72.15
28701;BME280;15877;52.344;16.790;2022-10-31T03:18:52;100994.05;;;13.27;72.17
28701;BME280;15877;52.344;16.790;2022-10-31T03:21:29;100995.44;;;13.26;72.23
28701;BME280;15877;52.344;16.790;2022-10-31T03:24:06;100995.52;;;13.25;72.27
28701;BME280;15877;52.344;16.790;2022-10-31T03:26:43;100997.06;;;13.23;72.36
28701;BME280;15877;52.344;16.790;2022-10-31T03:29:18;100982.70;;;13.14;72.62
28701;BME280;15877;52.344;16.790;2022-10-31T03:31:57;100995.54;;;13.23;72.68
28701;BME280;15877;52.344;16.790;2022-10-31T03:34:31;100994.64;;;13.21;72.94
28701;BME280;15877;52.344;16.790;2022-10-31T03:37:06;100994.95;;;13.21;73.02
28701;BME280;15877;52.344;16.790;2022-10-31T03:39:41;100990.38;;;13.19;73.11
28701;BME280;15877;52.344;16.790;2022-10-31T03:42:17;100991.26;;;13.19;73.85
28701;BME280;15877;52.344;16.790;2022-10-31T03:44:55;100990.46;;;13.20;73.64
28701;BME280;15877;52.344;16.790;2022-10-31T03:47:30;100978.98;;;13.13;73.52
28701;BME280;15877;52.344;16.790;2022-10-31T03:50:05;100992.33;;;13.21;73.38
28701;BME280;15877;52.344;16.790;2022-10-31T03:52:43;100997.38;;;13.23;72.84
28701;BME280;15877;52.344;16.790;2022-10-31T03:55:22;100991.63;;;13.22;73.16
28701;BME280;15877;52.344;16.790;2022-10-31T03:58:01;100991.02;;;13.20;73.11
28701;BME280;15877;52.344;16.790;2022-10-31T04:00:40;100995.34;;;13.21;73.15
28701;BME280;15877;52.344;16.790;2022-10-31T04:03:17;100996.77;;;13.20;73.08
28701;BME280;15877;52.344;16.790;2022-10-31T04:05:53;100995.25;;;13.20;72.73
28701;BME280;15877;52.344;16.790;2022-10-31T04:08:30;100997.38;;;13.19;72.41
28701;BME280;15877;52.344;16.790;2022-10-31T04:11:04;100994.14;;;13.17;72.07
28701;BME280;15877;52.344;16.790;2022-10-31T04:13:45;101001.52;;;13.15;71.84
28701;BME280;15877;52.344;16.790;2022-10-31T04:16:18;101000.94;;;13.13;71.56
28701;BME280;15877;52.344;16.790;2022-10-31T04:18:51;101001.30;;;13.12;71.47
28701;BME280;15877;52.344;16.790;2022-10-31T04:21:28;101005.80;;;13.10;71.09
28701;BME280;15877;52.344;16.790;2022-10-31T04:24:00;101005.59;;;13.07;71.13
28701;BME280;15877;52.344;16.790;2022-10-31T04:26:33;101006.02;;;13.05;71.32
28701;BME280;15877;52.344;16.790;2022-10-31T04:29:06;101007.71;;;13.02;71.00
28701;BME280;15877;52.344;16.790;2022-10-31T04:31:38;101010.33;;;13.01;70.92
28701;BME280;15877;52.344;16.790;2022-10-31T04:34:10;101006.16;;;12.98;71.07
28701;BME280;15877;52.344;16.790;2022-10-31T04:36:43;101007.16;;;12.97;71.32
28701;BME280;15877;52.344;16.790;2022-10-31T04:39:17;101005.30;;;12.95;71.33
28701;BME280;15877;52.344;16.790;2022-10-31T04:42:16;101005.33;;;12.93;71.30
28701;BME280;15877;52.344;16.790;2022-10-31T04:44:50;101007.30;;;12.92;71.47
28701;BME280;15877;52.344;16.790;2022-10-31T04:47:22;101005.55;;;12.92;71.62
28701;BME280;15877;52.344;16.790;2022-10-31T04:49:56;101006.29;;;12.93;71.77
28701;BME280;15877;52.344;16.790;2022-10-31T04:52:29;100999.67;;;12.86;71.90
28701;BME280;15877;52.344;16.790;2022-10-31T04:55:01;101008.92;;;12.93;72.55
28701;BME280;15877;52.344;16.790;2022-10-31T04:57:52;100996.33;;;12.86;72.92
28701;BME280;15877;52.344;16.790;2022-10-31T05:00:26;101006.93;;;12.93;73.07
28701;BME280;15877;52.344;16.790;2022-10-31T05:02:59;101004.52;;;12.92;73.53
28701;BME280;15877;52.344;16.790;2022-10-31T05:05:32;101009.63;;;12.93;73.61
28701;BME280;15877;52.344;16.790;2022-10-31T05:08:06;101007.80;;;12.94;73.47
28701;BME280;15877;52.344;16.790;2022-10-31T05:10:39;101011.16;;;12.93;73.34
28701;BME280;15877;52.344;16.790;2022-10-31T05:13:11;101008.83;;;12.92;73.40
28701;BME280;15877;52.344;16.790;2022-10-31T05:16:04;101011.20;;;12.92;73.50
28701;BME280;15877;52.344;16.790;2022-10-31T05:18:55;101015.64;;;12.91;73.31
28701;BME280;15877;52.344;16.790;2022-10-31T05:21:46;101016.45;;;12.91;73.27
28701;BME280;15877;52.344;16.790;2022-10-31T05:24:26;101023.14;;;12.91;73.36
28701;BME280;15877;52.344;16.790;2022-10-31T05:26:58;101025.80;;;12.92;73.57
28701;BME280;15877;52.344;16.790;2022-10-31T05:29:31;101026.67;;;12.92;73.70
28701;BME280;15877;52.344;16.790;2022-10-31T05:32:04;101029.54;;;12.92;73.75
28701;BME280;15877;52.344;16.790;2022-10-31T05:34:59;101031.35;;;12.91;74.01
28701;BME280;15877;52.344;16.790;2022-10-31T05:37:51;101032.12;;;12.90;74.39
28701;BME280;15877;52.344;16.790;2022-10-31T05:40:24;101033.69;;;12.89;74.66
28701;BME280;15877;52.344;16.790;2022-10-31T05:42:58;101037.22;;;12.90;74.59
28701;BME280;15877;52.344;16.790;2022-10-31T05:45:30;101039.52;;;12.90;75.17
28701;BME280;15877;52.344;16.790;2022-10-31T05:48:06;101042.01;;;12.91;75.24
28701;BME280;15877;52.344;16.790;2022-10-31T05:50:57;101041.23;;;12.91;75.46
28701;BME280;15877;52.344;16.790;2022-10-31T05:53:29;101041.17;;;12.92;75.13
28701;BME280;15877;52.344;16.790;2022-10-31T05:56:01;101035.45;;;12.94;74.91
28701;BME280;15877;52.344;16.790;2022-10-31T05:58:34;101038.18;;;12.94;74.99
28701;BME280;15877;52.344;16.790;2022-10-31T06:01:08;101042.59;;;12.95;75.05
28701;BME280;15877;52.344;16.790;2022-10-31T06:03:41;101045.16;;;12.96;74.79
28701;BME280;15877;52.344;16.790;2022-10-31T06:06:13;101046.37;;;12.97;74.67
28701;BME280;15877;52.344;16.790;2022-10-31T06:08:45;101045.98;;;12.97;74.78
28701;BME280;15877;52.344;16.790;2022-10-31T06:11:22;101043.84;;;12.97;74.83
28701;BME280;15877;52.344;16.790;2022-10-31T06:14:04;101044.48;;;12.98;74.80
28701;BME280;15877;52.344;16.790;2022-10-31T06:16:55;101045.12;;;12.98;74.91
28701;BME280;15877;52.344;16.790;2022-10-31T06:19:46;101031.46;;;12.93;74.73
28701;BME280;15877;52.344;16.790;2022-10-31T06:22:24;101043.58;;;13.00;74.74
28701;BME280;15877;52.344;16.790;2022-10-31T06:24:57;101042.06;;;13.00;74.61
28701;BME280;15877;52.344;16.790;2022-10-31T06:27:37;101045.14;;;13.01;74.53
28701;BME280;15877;52.344;16.790;2022-10-31T06:30:15;101053.84;;;13.02;74.41
28701;BME280;15877;52.344;16.790;2022-10-31T06:32:50;101056.92;;;13.01;74.51
28701;BME280;15877;52.344;16.790;2022-10-31T06:35:23;101063.06;;;13.01;74.19
28701;BME280;15877;52.344;16.790;2022-10-31T06:37:56;101064.80;;;13.01;74.48
28701;BME280;15877;52.344;16.790;2022-10-31T06:40:48;101074.06;;;13.01;74.33
28701;BME280;15877;52.344;16.790;2022-10-31T06:43:31;101075.55;;;13.01;74.40
28701;BME280;15877;52.344;16.790;2022-10-31T06:46:30;101078.00;;;13.02;74.84
28701;BME280;15877;52.344;16.790;2022-10-31T06:49:25;101082.63;;;13.06;74.71
28701;BME280;15877;52.344;16.790;2022-10-31T06:51:58;101088.25;;;13.04;74.94
28701;BME280;15877;52.344;16.790;2022-10-31T06:54:30;101092.60;;;13.06;75.32
28701;BME280;15877;52.344;16.790;2022-10-31T06:57:02;101096.68;;;13.07;75.68
28701;BME280;15877;52.344;16.790;2022-10-31T06:59:35;101107.05;;;13.07;75.37
28701;BME280;15877;52.344;16.790;2022-10-31T07:02:17;101104.89;;;13.10;75.26
28701;BME280;15877;52.344;16.790;2022-10-31T07:04:51;101108.61;;;13.13;75.57
28701;BME280;15877;52.344;16.790;2022-10-31T07:07:23;101111.32;;;13.16;75.42
28701;BME280;15877;52.344;16.790;2022-10-31T07:09:55;101113.70;;;13.19;75.71
28701;BME280;15877;52.344;16.790;2022-10-31T07:12:45;101110.53;;;13.21;75.75
28701;BME280;15877;52.344;16.790;2022-10-31T07:15:17;101111.48;;;13.24;76.16
28701;BME280;15877;52.344;16.790;2022-10-31T07:17:49;101115.94;;;13.27;76.64
28701;BME280;15877;52.344;16.790;2022-10-31T07:20:21;101121.69;;;13.31;77.28
28701;BME280;15877;52.344;16.790;2022-10-31T07:22:53;101126.91;;;13.36;77.62
28701;BME280;15877;52.344;16.790;2022-10-31T07:25:26;101128.19;;;13.40;78.17
28701;BME280;15877;52.344;16.790;2022-10-31T07:28:12;101118.20;;;13.39;78.71
28701;BME280;15877;52.344;16.790;2022-10-31T07:30:52;101132.02;;;13.52;78.95
28701;BME280;15877;52.344;16.790;2022-10-31T07:33:25;101130.78;;;13.58;79.41
28701;BME280;15877;52.344;16.790;2022-10-31T07:36:16;101130.03;;;13.63;79.88
28701;BME280;15877;52.344;16.790;2022-10-31T07:38:49;101132.66;;;13.67;80.34
28701;BME280;15877;52.344;16.790;2022-10-31T07:41:22;101134.23;;;13.73;80.46
28701;BME280;15877;52.344;16.790;2022-10-31T07:43:54;101135.72;;;13.79;80.82
28701;BME280;15877;52.344;16.790;2022-10-31T07:46:44;101135.90;;;13.85;80.77
28701;BME280;15877;52.344;16.790;2022-10-31T07:49:26;101138.55;;;13.90;80.85
28701;BME280;15877;52.344;16.790;2022-10-31T07:52:17;101134.50;;;13.95;81.07
28701;BME280;15877;52.344;16.790;2022-10-31T07:55:08;101131.74;;;14.01;81.06
28701;BME280;15877;52.344;16.790;2022-10-31T07:57:41;101131.73;;;14.04;81.47
28701;BME280;15877;52.344;16.790;2022-10-31T08:00:15;101130.13;;;14.08;81.49
28701;BME280;15877;52.344;16.790;2022-10-31T08:02:47;101130.94;;;14.13;81.92
28701;BME280;15877;52.344;16.790;2022-10-31T08:05:43;101133.08;;;14.17;82.39
28701;BME280;15877;52.344;16.790;2022-10-31T08:08:37;101131.65;;;14.22;82.43
28701;BME280;15877;52.344;16.790;2022-10-31T08:11:10;101133.84;;;14.26;82.61
28701;BME280;15877;52.344;16.790;2022-10-31T08:13:42;101130.34;;;14.27;83.06
28701;BME280;15877;52.344;16.790;2022-10-31T08:16:17;101125.90;;;14.32;83.44
28701;BME280;15877;52.344;16.790;2022-10-31T08:18:59;101124.85;;;14.36;83.79
28701;BME280;15877;52.344;16.790;2022-10-31T08:21:33;101122.80;;;14.38;84.57
28701;BME280;15877;52.344;16.790;2022-10-31T08:24:05;101130.09;;;14.48;84.57
28701;BME280;15877;52.344;16.790;2022-10-31T08:26:38;101127.39;;;14.53;84.78
28701;BME280;15877;52.344;16.790;2022-10-31T08:29:12;101132.14;;;14.60;85.20
28701;BME280;15877;52.344;16.790;2022-10-31T08:31:45;101133.27;;;14.65;85.88
28701;BME280;15877;52.344;16.790;2022-10-31T08:34:36;101133.92;;;14.72;86.53
28701;BME280;15877;52.344;16.790;2022-10-31T08:37:27;101135.09;;;14.75;87.78
28701;BME280;15877;52.344;16.790;2022-10-31T08:39:59;101139.61;;;14.83;88.42
28701;BME280;15877;52.344;16.790;2022-10-31T08:42:36;101142.17;;;14.93;88.28
28701;BME280;15877;52.344;16.790;2022-10-31T08:45:10;101149.29;;;15.03;87.96
28701;BME280;15877;52.344;16.790;2022-10-31T08:47:42;101152.54;;;15.12;87.72
28701;BME280;15877;52.344;16.790;2022-10-31T08:50:16;101148.91;;;15.20;87.56
28701;BME280;15877;52.344;16.790;2022-10-31T08:52:48;101148.26;;;15.25;87.71
28701;BME280;15877;52.344;16.790;2022-10-31T08:55:37;101151.73;;;15.23;88.88
28701;BME280;15877;52.344;16.790;2022-10-31T08:58:24;101150.97;;;15.30;88.68
28701;BME280;15877;52.344;16.790;2022-10-31T09:01:01;101150.00;;;15.35;89.38
28701;BME280;15877;52.344;16.790;2022-10-31T09:03:34;101135.58;;;15.38;88.58
28701;BME280;15877;52.344;16.790;2022-10-31T09:06:07;101153.68;;;15.51;89.38
28701;BME280;15877;52.344;16.790;2022-10-31T09:08:40;101151.54;;;15.52;89.67
28701;BME280;15877;52.344;16.790;2022-10-31T09:11:12;101156.69;;;15.53;90.79
28701;BME280;15877;52.344;16.790;2022-10-31T09:14:03;101156.95;;;15.69;89.44
28701;BME280;15877;52.344;16.790;2022-10-31T09:16:54;101155.27;;;15.81;88.58
28701;BME280;15877;52.344;16.790;2022-10-31T09:19:30;101154.94;;;15.85;88.62
28701;BME280;15877;52.344;16.790;2022-10-31T09:22:02;101154.52;;;15.92;87.67
28701;BME280;15877;52.344;16.790;2022-10-31T09:24:35;101156.13;;;15.99;87.27
28701;BME280;15877;52.344;16.790;2022-10-31T09:27:07;101151.42;;;15.93;87.81
28701;BME280;15877;52.344;16.790;2022-10-31T09:29:43;101158.20;;;16.05;87.11
28701;BME280;15877;52.344;16.790;2022-10-31T09:32:16;101160.80;;;16.01;87.81
28701;BME280;15877;52.344;16.790;2022-10-31T09:34:49;101161.41;;;16.06;88.08
28701;BME280;15877;52.344;16.790;2022-10-31T09:37:22;101166.52;;;16.18;87.44
28701;BME280;15877;52.344;16.790;2022-10-31T09:39:55;101164.00;;;16.22;87.94
28701;BME280;15877;52.344;16.790;2022-10-31T09:42:49;101163.38;;;16.23;88.03
28701;BME280;15877;52.344;16.790;2022-10-31T09:45:32;101165.98;;;16.42;87.18
28701;BME280;15877;52.344;16.790;2022-10-31T09:48:24;101166.17;;;16.51;86.12
28701;BME280;15877;52.344;16.790;2022-10-31T09:51:19;101164.16;;;16.59;86.20
28701;BME280;15877;52.344;16.790;2022-10-31T09:54:08;101168.25;;;16.67;86.26
28701;BME280;15877;52.344;16.790;2022-10-31T09:56:43;101173.01;;;16.72;85.90
28701;BME280;15877;52.344;16.790;2022-10-31T09:59:20;101175.52;;;16.75;86.38
28701;BME280;15877;52.344;16.790;2022-10-31T10:01:58;101180.99;;;16.87;85.79
28701;BME280;15877;52.344;16.790;2022-10-31T10:04:36;101175.05;;;16.95;84.85
28701;BME280;15877;52.344;16.790;2022-10-31T10:07:21;101173.77;;;16.96;84.87
28701;BME280;15877;52.344;16.790;2022-10-31T10:10:17;101177.73;;;16.99;85.19
28701;BME280;15877;52.344;16.790;2022-10-31T10:13:27;101173.86;;;17.07;85.56
28701;BME280;15877;52.344;16.790;2022-10-31T10:16:19;101180.27;;;17.19;85.97
28701;BME280;15877;52.344;16.790;2022-10-31T10:19:07;101174.23;;;17.27;85.52
28701;BME280;15877;52.344;16.790;2022-10-31T10:21:47;101178.98;;;17.40;84.74
28701;BME280;15877;52.344;16.790;2022-10-31T10:24:33;101174.05;;;17.47;84.22
28701;BME280;15877;52.344;16.790;2022-10-31T10:27:16;101163.45;;;17.43;84.38
28701;BME280;15877;52.344;16.790;2022-10-31T10:29:59;101174.06;;;17.62;84.59
28701;BME280;15877;52.344;16.790;2022-10-31T10:32:38;101169.43;;;17.66;84.03
28701;BME280;15877;52.344;16.790;2022-10-31T10:35:21;101165.94;;;17.74;83.38
28701;BME280;15877;52.344;16.790;2022-10-31T10:37:58;101163.48;;;17.80;83.20
28701;BME280;15877;52.344;16.790;2022-10-31T10:40:34;101162.48;;;17.89;82.83
28701;BME280;15877;52.344;16.790;2022-10-31T10:43:18;101159.42;;;17.92;82.63
28701;BME280;15877;52.344;16.790;2022-10-31T10:46:03;101159.62;;;18.01;83.92
28701;BME280;15877;52.344;16.790;2022-10-31T10:48:56;101157.71;;;18.11;83.04
28701;BME280;15877;52.344;16.790;2022-10-31T10:51:39;101155.26;;;18.17;82.12
28701;BME280;15877;52.344;16.790;2022-10-31T10:54:41;101150.38;;;18.26;82.42
28701;BME280;15877;52.344;16.790;2022-10-31T10:57:27;101149.60;;;18.38;82.40
28701;BME280;15877;52.344;16.790;2022-10-31T11:00:02;101139.23;;;18.34;82.58
28701;BME280;15877;52.344;16.790;2022-10-31T11:02:33;101151.64;;;18.48;81.55
28701;BME280;15877;52.344;16.790;2022-10-31T11:05:17;101149.15;;;18.55;80.68
28701;BME280;15877;52.344;16.790;2022-10-31T11:08:10;101151.33;;;18.62;80.81
28701;BME280;15877;52.344;16.790;2022-10-31T11:11:02;101149.80;;;18.77;80.45
28701;BME280;15877;52.344;16.790;2022-10-31T11:13:37;101148.99;;;18.79;80.25
28701;BME280;15877;52.344;16.790;2022-10-31T11:16:14;101149.81;;;18.84;80.46
28701;BME280;15877;52.344;16.790;2022-10-31T11:18:47;101147.39;;;18.88;80.03
28701;BME280;15877;52.344;16.790;2022-10-31T11:25:30;101146.50;;;18.97;79.80
28701;BME280;15877;52.344;16.790;2022-10-31T11:28:05;101149.81;;;19.01;79.66
28701;BME280;15877;52.344;16.790;2022-10-31T11:30:44;101155.27;;;19.10;79.33
28701;BME280;15877;52.344;16.790;2022-10-31T11:33:20;101152.10;;;19.22;78.82
28701;BME280;15877;52.344;16.790;2022-10-31T11:35:55;101152.59;;;19.25;78.58
28701;BME280;15877;52.344;16.790;2022-10-31T11:38:33;101157.48;;;19.34;78.37
28701;BME280;15877;52.344;16.790;2022-10-31T11:41:11;101150.09;;;19.38;78.65
28701;BME280;15877;52.344;16.790;2022-10-31T11:43:50;101150.33;;;19.40;78.00
28701;BME280;15877;52.344;16.790;2022-10-31T11:46:28;101148.54;;;19.43;77.62
28701;BME280;15877;52.344;16.790;2022-10-31T11:49:02;101148.21;;;19.47;77.38
28701;BME280;15877;52.344;16.790;2022-10-31T11:51:36;101144.42;;;19.47;78.08
28701;BME280;15877;52.344;16.790;2022-10-31T11:54:23;101146.99;;;19.49;77.08
28701;BME280;15877;52.344;16.790;2022-10-31T11:56:57;101142.64;;;19.51;77.18
28701;BME280;15877;52.344;16.790;2022-10-31T11:59:31;101146.25;;;19.57;77.16
28701;BME280;15877;52.344;16.790;2022-10-31T12:02:17;101145.95;;;19.51;76.67
28701;BME280;15877;52.344;16.790;2022-10-31T12:04:56;101137.89;;;19.53;77.33
28701;BME280;15877;52.344;16.790;2022-10-31T12:07:30;101131.49;;;19.63;77.41
28701;BME280;15877;52.344;16.790;2022-10-31T12:10:02;101127.54;;;19.64;77.37
28701;BME280;15877;52.344;16.790;2022-10-31T12:12:56;101128.41;;;19.67;77.77
28701;BME280;15877;52.344;16.790;2022-10-31T12:15:34;101128.16;;;19.70;77.35
28701;BME280;15877;52.344;16.790;2022-10-31T12:18:34;101120.56;;;19.52;78.68
28701;BME280;15877;52.344;16.790;2022-10-31T12:21:19;101129.38;;;19.65;79.03
28701;BME280;15877;52.344;16.790;2022-10-31T12:24:10;101131.11;;;19.58;79.38
28701;BME280;15877;52.344;16.790;2022-10-31T12:26:53;101130.79;;;19.54;79.28
28701;BME280;15877;52.344;16.790;2022-10-31T12:29:45;101133.34;;;19.64;79.32
28701;BME280;15877;52.344;16.790;2022-10-31T12:32:32;101128.77;;;19.74;78.52
28701;BME280;15877;52.344;16.790;2022-10-31T12:35:21;101130.55;;;19.72;79.17
28701;BME280;15877;52.344;16.790;2022-10-31T12:38:36;101126.64;;;19.67;78.97
28701;BME280;15877;52.344;16.790;2022-10-31T12:41:21;101125.98;;;19.68;79.27
28701;BME280;15877;52.344;16.790;2022-10-31T12:44:03;101126.71;;;19.71;79.57
28701;BME280;15877;52.344;16.790;2022-10-31T12:46:51;101121.11;;;19.60;79.35
28701;BME280;15877;52.344;16.790;2022-10-31T12:49:41;101126.80;;;19.66;79.70
28701;BME280;15877;52.344;16.790;2022-10-31T12:52:34;101105.03;;;19.53;79.57
28701;BME280;15877;52.344;16.790;2022-10-31T12:55:19;101116.96;;;19.71;79.62
28701;BME280;15877;52.344;16.790;2022-10-31T12:58:02;101111.55;;;19.68;78.96
28701;BME280;15877;52.344;16.790;2022-10-31T13:00:38;101115.91;;;19.69;78.72
28701;BME280;15877;52.344;16.790;2022-10-31T13:03:21;101112.19;;;19.73;78.47
28701;BME280;15877;52.344;16.790;2022-10-31T13:05:57;101111.79;;;19.75;78.87
28701;BME280;15877;52.344;16.790;2022-10-31T13:08:33;101106.94;;;19.76;79.20
28701;BME280;15877;52.344;16.790;2022-10-31T13:11:09;101105.51;;;19.73;78.58
28701;BME280;15877;52.344;16.790;2022-10-31T13:13:45;101101.41;;;19.71;78.76
28701;BME280;15877;52.344;16.790;2022-10-31T13:16:21;101102.60;;;19.73;79.20
28701;BME280;15877;52.344;16.790;2022-10-31T13:18:57;101097.60;;;19.75;79.10
28701;BME280;15877;52.344;16.790;2022-10-31T13:21:34;101095.30;;;19.69;79.57
28701;BME280;15877;52.344;16.790;2022-10-31T13:24:11;101077.63;;;19.57;79.46
28701;BME280;15877;52.344;16.790;2022-10-31T13:26:49;101094.25;;;19.68;79.58
28701;BME280;15877;52.344;16.790;2022-10-31T13:29:24;101101.09;;;19.69;80.23
28701;BME280;15877;52.344;16.790;2022-10-31T13:32:05;101093.22;;;19.66;79.95
28701;BME280;15877;52.344;16.790;2022-10-31T13:34:39;101097.80;;;19.68;80.61
28701;BME280;15877;52.344;16.790;2022-10-31T13:37:17;101098.53;;;19.67;80.55
28701;BME280;15877;52.344;16.790;2022-10-31T13:40:05;101094.65;;;19.69;80.38
28701;BME280;15877;52.344;16.790;2022-10-31T13:42:50;101090.15;;;19.67;79.60